sensor_id;sensor_type;location;lat;lon;timestamp;pressure;altitude;pressure_sealevel;temperature
65600;BMP280;52272;-29.642;-50.764;2023-01-15T00:00:20;100588.53;;;25.21
65600;BMP280;52272;-29.642;-50.764;2023-01-15T00:02:51;100590.84;;;25.10
65600;BMP280;52272;-29.642;-50.764;2023-01-15T00:05:21;100581.94;;;25.10
65600;BMP280;52272;-29.642;-50.764;2023-01-15T00:07:51;100574.41;;;25.30
65600;BMP280;52272;-29.642;-50.764;2023-01-15T00:10:22;100584.56;;;25.22
65600;BMP280;52272;-29.642;-50.764;2023-01-15T00:12:53;100573.91;;;25.04
65600;BMP280;52272;-29.642;-50.764;2023-01-15T00:15:23;100578.97;;;25.00
65600;BMP280;52272;-29.642;-50.764;2023-01-15T00:17:53;100598.38;;;25.24
65600;BMP280;52272;-29.642;-50.764;2023-01-15T00:20:24;100597.66;;;25.31
65600;BMP280;52272;-29.642;-50.764;2023-01-15T00:22:54;100612.94;;;25.34
65600;BMP280;52272;-29.642;-50.764;2023-01-15T00:25:24;100610.63;;;25.03
65600;BMP280;52272;-29.642;-50.764;2023-01-15T00:28:13;100616.28;;;25.13
65600;BMP280;52272;-29.642;-50.764;2023-01-15T00:30:45;100620.78;;;25.30
65600;BMP280;52272;-29.642;-50.764;2023-01-15T00:33:16;100623.63;;;25.18
65600;BMP280;52272;-29.642;-50.764;2023-01-15T00:35:48;100636.22;;;25.35
65600;BMP280;52272;-29.642;-50.764;2023-01-15T00:38:18;100629.69;;;25.38
65600;BMP280;52272;-29.642;-50.764;2023-01-15T00:40:48;100629.69;;;25.38
65600;BMP280;52272;-29.642;-50.764;2023-01-15T00:43:21;100627.88;;;25.33
65600;BMP280;52272;-29.642;-50.764;2023-01-15T00:45:51;100622.44;;;25.33
65600;BMP280;52272;-29.642;-50.764;2023-01-15T00:48:22;100620.50;;;25.14
65600;BMP280;52272;-29.642;-50.764;2023-01-15T00:50:52;100620.91;;;25.25
65600;BMP280;52272;-29.642;-50.764;2023-01-15T00:53:22;100621.66;;;25.25
65600;BMP280;52272;-29.642;-50.764;2023-01-15T00:55:52;100622.91;;;25.24
65600;BMP280;52272;-29.642;-50.764;2023-01-15T00:58:22;100619.81;;;25.20
65600;BMP280;52272;-29.642;-50.764;2023-01-15T01:00:54;100626.59;;;25.27
65600;BMP280;52272;-29.642;-50.764;2023-01-15T01:03:25;100635.28;;;25.25
65600;BMP280;52272;-29.642;-50.764;2023-01-15T01:06:00;100646.34;;;25.20
65600;BMP280;52272;-29.642;-50.764;2023-01-15T01:08:31;100633.25;;;25.18
65600;BMP280;52272;-29.642;-50.764;2023-01-15T01:11:09;100630.31;;;25.17
65600;BMP280;52272;-29.642;-50.764;2023-01-15T01:13:39;100647.19;;;25.15
65600;BMP280;52272;-29.642;-50.764;2023-01-15T01:16:34;100652.75;;;25.02
65600;BMP280;52272;-29.642;-50.764;2023-01-15T01:19:08;100652.66;;;24.87
65600;BMP280;52272;-29.642;-50.764;2023-01-15T01:21:41;100641.13;;;25.02
65600;BMP280;52272;-29.642;-50.764;2023-01-15T01:24:14;100640.53;;;24.96
65600;BMP280;52272;-29.642;-50.764;2023-01-15T01:26:46;100647.31;;;25.02
65600;BMP280;52272;-29.642;-50.764;2023-01-15T01:29:21;100646.19;;;24.98
65600;BMP280;52272;-29.642;-50.764;2023-01-15T01:31:51;100648.38;;;24.99
65600;BMP280;52272;-29.642;-50.764;2023-01-15T01:34:21;100656.41;;;25.05
65600;BMP280;52272;-29.642;-50.764;2023-01-15T01:36:52;100658.56;;;24.99
65600;BMP280;52272;-29.642;-50.764;2023-01-15T01:39:22;100664.34;;;24.95
65600;BMP280;52272;-29.642;-50.764;2023-01-15T01:41:53;100646.72;;;24.96
65600;BMP280;52272;-29.642;-50.764;2023-01-15T01:47:10;100657.09;;;24.98
65600;BMP280;52272;-29.642;-50.764;2023-01-15T01:49:44;100663.31;;;25.06
65600;BMP280;52272;-29.642;-50.764;2023-01-15T01:52:25;100668.63;;;25.39
65600;BMP280;52272;-29.642;-50.764;2023-01-15T01:54:56;100674.13;;;25.46
65600;BMP280;52272;-29.642;-50.764;2023-01-15T01:57:28;100670.16;;;25.55
65600;BMP280;52272;-29.642;-50.764;2023-01-15T01:59:58;100661.06;;;25.52
65600;BMP280;52272;-29.642;-50.764;2023-01-15T02:02:45;100660.72;;;25.56
65600;BMP280;52272;-29.642;-50.764;2023-01-15T02:05:31;100661.28;;;25.26
65600;BMP280;52272;-29.642;-50.764;2023-01-15T02:08:05;100664.22;;;25.28
65600;BMP280;52272;-29.642;-50.764;2023-01-15T02:10:35;100671.81;;;25.50
65600;BMP280;52272;-29.642;-50.764;2023-01-15T02:13:24;100665.75;;;25.44
65600;BMP280;52272;-29.642;-50.764;2023-01-15T02:16:20;100666.13;;;25.48
65600;BMP280;52272;-29.642;-50.764;2023-01-15T02:21:56;100650.66;;;25.43
65600;BMP280;52272;-29.642;-50.764;2023-01-15T02:24:54;100636.44;;;25.37
65600;BMP280;52272;-29.642;-50.764;2023-01-15T02:27:28;100620.19;;;25.24
65600;BMP280;52272;-29.642;-50.764;2023-01-15T02:30:15;100631.00;;;25.10
65600;BMP280;52272;-29.642;-50.764;2023-01-15T02:33:03;100622.38;;;24.98
65600;BMP280;52272;-29.642;-50.764;2023-01-15T02:35:53;100616.50;;;24.87
65600;BMP280;52272;-29.642;-50.764;2023-01-15T02:38:36;100631.19;;;24.84
65600;BMP280;52272;-29.642;-50.764;2023-01-15T02:41:10;100625.16;;;24.78
65600;BMP280;52272;-29.642;-50.764;2023-01-15T02:43:52;100624.84;;;24.61
65600;BMP280;52272;-29.642;-50.764;2023-01-15T02:46:29;100624.25;;;24.55
65600;BMP280;52272;-29.642;-50.764;2023-01-15T02:49:04;100624.00;;;24.45
65600;BMP280;52272;-29.642;-50.764;2023-01-15T02:52:02;100626.16;;;24.47
65600;BMP280;52272;-29.642;-50.764;2023-01-15T02:54:42;100625.34;;;24.39
65600;BMP280;52272;-29.642;-50.764;2023-01-15T02:57:15;100628.59;;;24.37
65600;BMP280;52272;-29.642;-50.764;2023-01-15T02:59:55;100622.06;;;24.33
65600;BMP280;52272;-29.642;-50.764;2023-01-15T03:02:33;100616.63;;;24.33
65600;BMP280;52272;-29.642;-50.764;2023-01-15T03:05:08;100619.44;;;24.27
65600;BMP280;52272;-29.642;-50.764;2023-01-15T03:07:52;100628.94;;;24.34
65600;BMP280;52272;-29.642;-50.764;2023-01-15T03:16:34;100625.69;;;24.35
65600;BMP280;52272;-29.642;-50.764;2023-01-15T03:22:08;100627.81;;;24.29
65600;BMP280;52272;-29.642;-50.764;2023-01-15T03:27:11;100608.44;;;24.33
65600;BMP280;52272;-29.642;-50.764;2023-01-15T03:29:49;100607.69;;;24.32
65600;BMP280;52272;-29.642;-50.764;2023-01-15T03:32:21;100604.66;;;24.36
65600;BMP280;52272;-29.642;-50.764;2023-01-15T03:34:53;100591.09;;;24.23
65600;BMP280;52272;-29.642;-50.764;2023-01-15T03:37:25;100596.00;;;24.24
65600;BMP280;52272;-29.642;-50.764;2023-01-15T03:39:58;100585.44;;;24.21
65600;BMP280;52272;-29.642;-50.764;2023-01-15T03:42:53;100603.03;;;24.20
65600;BMP280;52272;-29.642;-50.764;2023-01-15T03:45:49;100601.25;;;24.22
65600;BMP280;52272;-29.642;-50.764;2023-01-15T03:48:39;100605.63;;;24.25
65600;BMP280;52272;-29.642;-50.764;2023-01-15T03:54:21;100601.72;;;24.34
65600;BMP280;52272;-29.642;-50.764;2023-01-15T03:57:00;100597.97;;;24.24
65600;BMP280;52272;-29.642;-50.764;2023-01-15T03:59:43;100603.13;;;24.27
65600;BMP280;52272;-29.642;-50.764;2023-01-15T04:02:18;100606.44;;;24.33
65600;BMP280;52272;-29.642;-50.764;2023-01-15T04:04:51;100606.50;;;24.41
65600;BMP280;52272;-29.642;-50.764;2023-01-15T04:07:24;100601.34;;;24.30
65600;BMP280;52272;-29.642;-50.764;2023-01-15T04:09:54;100575.38;;;24.08
65600;BMP280;52272;-29.642;-50.764;2023-01-15T04:12:25;100591.47;;;24.27
65600;BMP280;52272;-29.642;-50.764;2023-01-15T04:14:56;100597.19;;;24.16
65600;BMP280;52272;-29.642;-50.764;2023-01-15T04:17:27;100584.09;;;24.14
65600;BMP280;52272;-29.642;-50.764;2023-01-15T04:19:58;100590.34;;;24.02
65600;BMP280;52272;-29.642;-50.764;2023-01-15T04:22:29;100584.28;;;23.96
65600;BMP280;52272;-29.642;-50.764;2023-01-15T04:24:59;100587.22;;;23.98
65600;BMP280;52272;-29.642;-50.764;2023-01-15T04:27:29;100582.81;;;23.95
65600;BMP280;52272;-29.642;-50.764;2023-01-15T04:29:59;100584.09;;;23.94
65600;BMP280;52272;-29.642;-50.764;2023-01-15T04:32:29;100578.19;;;24.03
65600;BMP280;52272;-29.642;-50.764;2023-01-15T04:34:59;100585.31;;;24.26
65600;BMP280;52272;-29.642;-50.764;2023-01-15T04:37:30;100592.13;;;24.00
65600;BMP280;52272;-29.642;-50.764;2023-01-15T04:39:59;100588.00;;;24.06
65600;BMP280;52272;-29.642;-50.764;2023-01-15T04:42:29;100584.91;;;24.22
65600;BMP280;52272;-29.642;-50.764;2023-01-15T04:45:26;100585.75;;;23.97
65600;BMP280;52272;-29.642;-50.764;2023-01-15T04:47:57;100586.97;;;24.09
65600;BMP280;52272;-29.642;-50.764;2023-01-15T04:50:27;100563.47;;;23.86
65600;BMP280;52272;-29.642;-50.764;2023-01-15T04:52:57;100560.81;;;23.73
65600;BMP280;52272;-29.642;-50.764;2023-01-15T04:55:29;100552.84;;;23.75
65600;BMP280;52272;-29.642;-50.764;2023-01-15T04:57:59;100552.78;;;23.67
65600;BMP280;52272;-29.642;-50.764;2023-01-15T05:00:30;100558.00;;;23.65
65600;BMP280;52272;-29.642;-50.764;2023-01-15T05:03:00;100543.41;;;23.55
65600;BMP280;52272;-29.642;-50.764;2023-01-15T05:05:31;100547.06;;;23.45
65600;BMP280;52272;-29.642;-50.764;2023-01-15T05:08:01;100544.56;;;23.47
65600;BMP280;52272;-29.642;-50.764;2023-01-15T05:10:32;100554.00;;;23.46
65600;BMP280;52272;-29.642;-50.764;2023-01-15T05:13:02;100546.28;;;23.70
65600;BMP280;52272;-29.642;-50.764;2023-01-15T05:15:35;100541.72;;;23.86
65600;BMP280;52272;-29.642;-50.764;2023-01-15T05:18:06;100544.56;;;23.80
65600;BMP280;52272;-29.642;-50.764;2023-01-15T05:20:37;100539.66;;;23.79
65600;BMP280;52272;-29.642;-50.764;2023-01-15T05:23:08;100538.38;;;23.59
65600;BMP280;52272;-29.642;-50.764;2023-01-15T05:25:38;100535.69;;;23.33
65600;BMP280;52272;-29.642;-50.764;2023-01-15T05:28:09;100520.22;;;23.28
65600;BMP280;52272;-29.642;-50.764;2023-01-15T05:30:39;100504.75;;;23.23
65600;BMP280;52272;-29.642;-50.764;2023-01-15T05:33:09;100505.91;;;23.28
65600;BMP280;52272;-29.642;-50.764;2023-01-15T05:35:40;100498.28;;;23.26
65600;BMP280;52272;-29.642;-50.764;2023-01-15T05:38:09;100497.22;;;23.29
65600;BMP280;52272;-29.642;-50.764;2023-01-15T05:40:39;100494.31;;;23.27
65600;BMP280;52272;-29.642;-50.764;2023-01-15T05:43:10;100493.53;;;23.40
65600;BMP280;52272;-29.642;-50.764;2023-01-15T05:45:40;100491.03;;;23.29
65600;BMP280;52272;-29.642;-50.764;2023-01-15T05:48:10;100484.47;;;23.37
65600;BMP280;52272;-29.642;-50.764;2023-01-15T05:50:40;100483.34;;;23.66
65600;BMP280;52272;-29.642;-50.764;2023-01-15T05:53:10;100486.94;;;23.82
65600;BMP280;52272;-29.642;-50.764;2023-01-15T05:55:41;100477.25;;;23.94
65600;BMP280;52272;-29.642;-50.764;2023-01-15T05:58:11;100479.63;;;23.97
65600;BMP280;52272;-29.642;-50.764;2023-01-15T06:00:41;100472.91;;;23.98
65600;BMP280;52272;-29.642;-50.764;2023-01-15T06:03:10;100466.75;;;23.98
65600;BMP280;52272;-29.642;-50.764;2023-01-15T06:05:41;100468.41;;;24.01
65600;BMP280;52272;-29.642;-50.764;2023-01-15T06:08:11;100470.66;;;24.09
65600;BMP280;52272;-29.642;-50.764;2023-01-15T06:10:44;100467.22;;;24.09
65600;BMP280;52272;-29.642;-50.764;2023-01-15T06:13:15;100472.25;;;24.05
65600;BMP280;52272;-29.642;-50.764;2023-01-15T06:15:46;100465.00;;;24.07
65600;BMP280;52272;-29.642;-50.764;2023-01-15T06:18:16;100460.66;;;24.05
65600;BMP280;52272;-29.642;-50.764;2023-01-15T06:20:46;100460.19;;;23.93
65600;BMP280;52272;-29.642;-50.764;2023-01-15T06:23:17;100459.91;;;24.04
65600;BMP280;52272;-29.642;-50.764;2023-01-15T06:25:48;100450.97;;;23.76
65600;BMP280;52272;-29.642;-50.764;2023-01-15T06:28:18;100450.81;;;23.61
65600;BMP280;52272;-29.642;-50.764;2023-01-15T06:30:48;100455.13;;;23.56
65600;BMP280;52272;-29.642;-50.764;2023-01-15T06:33:18;100453.34;;;23.79
65600;BMP280;52272;-29.642;-50.764;2023-01-15T06:35:48;100461.06;;;23.88
65600;BMP280;52272;-29.642;-50.764;2023-01-15T06:38:19;100467.09;;;23.94
65600;BMP280;52272;-29.642;-50.764;2023-01-15T06:40:49;100471.66;;;23.79
65600;BMP280;52272;-29.642;-50.764;2023-01-15T06:43:19;100469.25;;;23.75
65600;BMP280;52272;-29.642;-50.764;2023-01-15T06:46:08;100466.41;;;23.81
65600;BMP280;52272;-29.642;-50.764;2023-01-15T06:48:57;100466.28;;;23.86
65600;BMP280;52272;-29.642;-50.764;2023-01-15T06:51:27;100467.03;;;23.87
65600;BMP280;52272;-29.642;-50.764;2023-01-15T06:53:58;100456.59;;;23.78
65600;BMP280;52272;-29.642;-50.764;2023-01-15T06:56:29;100461.50;;;23.79
65600;BMP280;52272;-29.642;-50.764;2023-01-15T06:58:58;100477.81;;;23.79
65600;BMP280;52272;-29.642;-50.764;2023-01-15T07:01:28;100466.28;;;23.86
65600;BMP280;52272;-29.642;-50.764;2023-01-15T07:03:59;100471.06;;;23.93
65600;BMP280;52272;-29.642;-50.764;2023-01-15T07:06:29;100460.06;;;23.45
65600;BMP280;52272;-29.642;-50.764;2023-01-15T07:08:59;100462.84;;;23.32
65600;BMP280;52272;-29.642;-50.764;2023-01-15T07:11:30;100461.84;;;23.42
65600;BMP280;52272;-29.642;-50.764;2023-01-15T07:13:59;100476.53;;;23.26
65600;BMP280;52272;-29.642;-50.764;2023-01-15T07:16:35;100467.88;;;23.28
65600;BMP280;52272;-29.642;-50.764;2023-01-15T07:19:05;100476.31;;;23.37
65600;BMP280;52272;-29.642;-50.764;2023-01-15T07:21:35;100474.97;;;23.18
65600;BMP280;52272;-29.642;-50.764;2023-01-15T07:24:06;100467.34;;;23.16
65600;BMP280;52272;-29.642;-50.764;2023-01-15T07:26:36;100474.06;;;23.49
65600;BMP280;52272;-29.642;-50.764;2023-01-15T07:29:07;100484.91;;;23.62
65600;BMP280;52272;-29.642;-50.764;2023-01-15T07:31:38;100485.66;;;23.62
65600;BMP280;52272;-29.642;-50.764;2023-01-15T07:34:09;100490.94;;;23.68
65600;BMP280;52272;-29.642;-50.764;2023-01-15T07:36:40;100486.47;;;23.70
65600;BMP280;52272;-29.642;-50.764;2023-01-15T07:39:11;100489.19;;;23.70
65600;BMP280;52272;-29.642;-50.764;2023-01-15T07:41:41;100480.69;;;23.74
65600;BMP280;52272;-29.642;-50.764;2023-01-15T07:44:34;100492.31;;;23.74
65600;BMP280;52272;-29.642;-50.764;2023-01-15T07:47:24;100491.72;;;23.55
65600;BMP280;52272;-29.642;-50.764;2023-01-15T07:50:17;100497.44;;;23.18
65600;BMP280;52272;-29.642;-50.764;2023-01-15T07:52:48;100481.50;;;23.48
65600;BMP280;52272;-29.642;-50.764;2023-01-15T07:55:21;100504.47;;;23.60
65600;BMP280;52272;-29.642;-50.764;2023-01-15T07:57:52;100521.19;;;23.64
65600;BMP280;52272;-29.642;-50.764;2023-01-15T08:00:23;100519.34;;;23.59
65600;BMP280;52272;-29.642;-50.764;2023-01-15T08:02:53;100527.38;;;23.52
65600;BMP280;52272;-29.642;-50.764;2023-01-15T08:05:23;100531.69;;;23.60
65600;BMP280;52272;-29.642;-50.764;2023-01-15T08:07:53;100526.66;;;23.51
65600;BMP280;52272;-29.642;-50.764;2023-01-15T08:10:23;100531.09;;;23.41
65600;BMP280;52272;-29.642;-50.764;2023-01-15T08:12:54;100543.06;;;23.59
65600;BMP280;52272;-29.642;-50.764;2023-01-15T08:15:55;100539.53;;;23.51
65600;BMP280;52272;-29.642;-50.764;2023-01-15T08:18:25;100552.38;;;23.50
65600;BMP280;52272;-29.642;-50.764;2023-01-15T08:20:56;100549.19;;;23.39
65600;BMP280;52272;-29.642;-50.764;2023-01-15T08:23:26;100554.06;;;23.53
65600;BMP280;52272;-29.642;-50.764;2023-01-15T08:25:59;100562.97;;;23.41
65600;BMP280;52272;-29.642;-50.764;2023-01-15T08:28:30;100559.94;;;23.44
65600;BMP280;52272;-29.642;-50.764;2023-01-15T08:31:00;100558.28;;;23.41
65600;BMP280;52272;-29.642;-50.764;2023-01-15T08:33:30;100555.84;;;23.51
65600;BMP280;52272;-29.642;-50.764;2023-01-15T08:36:02;100560.06;;;23.39
65600;BMP280;52272;-29.642;-50.764;2023-01-15T08:38:32;100566.81;;;23.32
65600;BMP280;52272;-29.642;-50.764;2023-01-15T08:41:03;100565.38;;;23.18
65600;BMP280;52272;-29.642;-50.764;2023-01-15T08:43:32;100581.28;;;23.40
65600;BMP280;52272;-29.642;-50.764;2023-01-15T08:46:04;100584.41;;;23.44
65600;BMP280;52272;-29.642;-50.764;2023-01-15T08:48:35;100572.69;;;23.36
65600;BMP280;52272;-29.642;-50.764;2023-01-15T08:51:06;100576.47;;;23.33
65600;BMP280;52272;-29.642;-50.764;2023-01-15T08:53:37;100582.41;;;23.45
65600;BMP280;52272;-29.642;-50.764;2023-01-15T08:56:15;100579.06;;;23.52
65600;BMP280;52272;-29.642;-50.764;2023-01-15T08:58:46;100564.13;;;23.45
65600;BMP280;52272;-29.642;-50.764;2023-01-15T09:01:17;100594.78;;;23.46
65600;BMP280;52272;-29.642;-50.764;2023-01-15T09:03:47;100589.63;;;23.55
65600;BMP280;52272;-29.642;-50.764;2023-01-15T09:06:17;100612.69;;;23.75
65600;BMP280;52272;-29.642;-50.764;2023-01-15T09:08:47;100605.09;;;23.73
65600;BMP280;52272;-29.642;-50.764;2023-01-15T09:11:17;100595.25;;;23.70
65600;BMP280;52272;-29.642;-50.764;2023-01-15T09:13:48;100613.03;;;23.84
65600;BMP280;52272;-29.642;-50.764;2023-01-15T09:16:20;100606.56;;;23.48
65600;BMP280;52272;-29.642;-50.764;2023-01-15T09:18:50;100622.88;;;23.48
65600;BMP280;52272;-29.642;-50.764;2023-01-15T09:21:21;100625.81;;;23.37
65600;BMP280;52272;-29.642;-50.764;2023-01-15T09:23:51;100634.97;;;23.86
65600;BMP280;52272;-29.642;-50.764;2023-01-15T09:26:32;100644.47;;;24.06
65600;BMP280;52272;-29.642;-50.764;2023-01-15T09:29:04;100640.75;;;24.16
65600;BMP280;52272;-29.642;-50.764;2023-01-15T09:31:35;100647.38;;;24.28
65600;BMP280;52272;-29.642;-50.764;2023-01-15T09:34:05;100660.19;;;24.20
65600;BMP280;52272;-29.642;-50.764;2023-01-15T09:36:35;100660.59;;;24.24
65600;BMP280;52272;-29.642;-50.764;2023-01-15T09:39:09;100661.63;;;24.34
65600;BMP280;52272;-29.642;-50.764;2023-01-15T09:44:36;100665.38;;;24.44
65600;BMP280;52272;-29.642;-50.764;2023-01-15T09:55:29;100676.84;;;24.70
65600;BMP280;52272;-29.642;-50.764;2023-01-15T09:58:05;100686.38;;;24.77
65600;BMP280;52272;-29.642;-50.764;2023-01-15T10:00:42;100689.69;;;24.83
65600;BMP280;52272;-29.642;-50.764;2023-01-15T10:08:46;100731.16;;;24.89
65600;BMP280;52272;-29.642;-50.764;2023-01-15T10:14:14;100734.53;;;24.82
65600;BMP280;52272;-29.642;-50.764;2023-01-15T10:16:46;100730.94;;;24.87
65600;BMP280;52272;-29.642;-50.764;2023-01-15T10:19:22;100737.75;;;24.93
65600;BMP280;52272;-29.642;-50.764;2023-01-15T10:22:27;100742.25;;;24.91
65600;BMP280;52272;-29.642;-50.764;2023-01-15T10:25:01;100750.81;;;24.95
65600;BMP280;52272;-29.642;-50.764;2023-01-15T10:27:34;100753.41;;;25.00
65600;BMP280;52272;-29.642;-50.764;2023-01-15T10:32:56;100757.72;;;25.36
65600;BMP280;52272;-29.642;-50.764;2023-01-15T10:35:50;100756.34;;;25.22
65600;BMP280;52272;-29.642;-50.764;2023-01-15T10:38:43;100760.72;;;25.53
65600;BMP280;52272;-29.642;-50.764;2023-01-15T10:44:33;100761.31;;;25.95
65600;BMP280;52272;-29.642;-50.764;2023-01-15T10:47:11;100751.88;;;26.03
65600;BMP280;52272;-29.642;-50.764;2023-01-15T10:49:44;100761.41;;;26.17
65600;BMP280;52272;-29.642;-50.764;2023-01-15T10:52:36;100760.34;;;26.35
65600;BMP280;52272;-29.642;-50.764;2023-01-15T10:58:15;100772.09;;;26.65
65600;BMP280;52272;-29.642;-50.764;2023-01-15T11:01:07;100775.75;;;26.83
65600;BMP280;52272;-29.642;-50.764;2023-01-15T11:03:41;100774.13;;;26.87
65600;BMP280;52272;-29.642;-50.764;2023-01-15T11:06:20;100776.13;;;27.09
65600;BMP280;52272;-29.642;-50.764;2023-01-15T11:08:53;100777.94;;;27.22
65600;BMP280;52272;-29.642;-50.764;2023-01-15T11:11:42;100780.66;;;27.36
65600;BMP280;52272;-29.642;-50.764;2023-01-15T11:14:32;100783.97;;;27.42
65600;BMP280;52272;-29.642;-50.764;2023-01-15T11:17:47;100786.31;;;27.31
65600;BMP280;52272;-29.642;-50.764;2023-01-15T11:20:42;100788.16;;;27.28
65600;BMP280;52272;-29.642;-50.764;2023-01-15T11:23:15;100792.69;;;27.19
65600;BMP280;52272;-29.642;-50.764;2023-01-15T11:25:51;100798.19;;;27.33
65600;BMP280;52272;-29.642;-50.764;2023-01-15T11:28:33;100810.50;;;27.64
65600;BMP280;52272;-29.642;-50.764;2023-01-15T11:31:06;100799.25;;;28.07
65600;BMP280;52272;-29.642;-50.764;2023-01-15T11:33:38;100803.81;;;28.44
65600;BMP280;52272;-29.642;-50.764;2023-01-15T11:36:29;100800.47;;;29.02
65600;BMP280;52272;-29.642;-50.764;2023-01-15T11:38:59;100805.63;;;29.48
65600;BMP280;52272;-29.642;-50.764;2023-01-15T11:41:34;100803.06;;;29.67
65600;BMP280;52272;-29.642;-50.764;2023-01-15T11:44:23;100806.50;;;30.37
65600;BMP280;52272;-29.642;-50.764;2023-01-15T11:47:13;100811.50;;;31.12
65600;BMP280;52272;-29.642;-50.764;2023-01-15T11:50:17;100809.16;;;30.45
65600;BMP280;52272;-29.642;-50.764;2023-01-15T11:53:12;100809.53;;;30.58
65600;BMP280;52272;-29.642;-50.764;2023-01-15T11:56:04;100805.97;;;30.48
65600;BMP280;52272;-29.642;-50.764;2023-01-15T11:58:49;100818.75;;;30.98
65600;BMP280;52272;-29.642;-50.764;2023-01-15T12:01:51;100824.28;;;31.36
65600;BMP280;52272;-29.642;-50.764;2023-01-15T12:05:00;100808.78;;;31.22
65600;BMP280;52272;-29.642;-50.764;2023-01-15T12:07:37;100818.44;;;31.79
65600;BMP280;52272;-29.642;-50.764;2023-01-15T12:10:18;100813.81;;;31.06
65600;BMP280;52272;-29.642;-50.764;2023-01-15T12:16:02;100805.69;;;30.90
65600;BMP280;52272;-29.642;-50.764;2023-01-15T12:21:43;100796.78;;;30.27
65600;BMP280;52272;-29.642;-50.764;2023-01-15T12:35:41;100808.72;;;29.52
65600;BMP280;52272;-29.642;-50.764;2023-01-15T12:38:58;100809.59;;;29.21
65600;BMP280;52272;-29.642;-50.764;2023-01-15T12:41:39;100813.38;;;29.25
65600;BMP280;52272;-29.642;-50.764;2023-01-15T12:50:51;100840.31;;;29.44
65600;BMP280;52272;-29.642;-50.764;2023-01-15T12:53:50;100840.34;;;29.70
65600;BMP280;52272;-29.642;-50.764;2023-01-15T12:56:56;100839.91;;;29.47
65600;BMP280;52272;-29.642;-50.764;2023-01-15T12:59:44;100839.22;;;29.39
65600;BMP280;52272;-29.642;-50.764;2023-01-15T13:05:27;100835.00;;;30.06
65600;BMP280;52272;-29.642;-50.764;2023-01-15T13:08:05;100837.44;;;29.85
65600;BMP280;52272;-29.642;-50.764;2023-01-15T13:10:40;100846.34;;;30.46
65600;BMP280;52272;-29.642;-50.764;2023-01-15T13:13:22;100831.72;;;30.89
65600;BMP280;52272;-29.642;-50.764;2023-01-15T13:21:24;100838.19;;;31.19
65600;BMP280;52272;-29.642;-50.764;2023-01-15T13:34:41;100851.84;;;32.54
65600;BMP280;52272;-29.642;-50.764;2023-01-15T13:37:41;100848.63;;;32.87
65600;BMP280;52272;-29.642;-50.764;2023-01-15T13:42:55;100843.06;;;32.46
65600;BMP280;52272;-29.642;-50.764;2023-01-15T13:45:38;100850.50;;;32.34
65600;BMP280;52272;-29.642;-50.764;2023-01-15T13:48:39;100845.72;;;32.64
65600;BMP280;52272;-29.642;-50.764;2023-01-15T13:51:26;100843.75;;;32.97
65600;BMP280;52272;-29.642;-50.764;2023-01-15T13:53:59;100842.06;;;33.34
65600;BMP280;52272;-29.642;-50.764;2023-01-15T13:56:32;100839.41;;;32.73
65600;BMP280;52272;-29.642;-50.764;2023-01-15T13:59:24;100835.75;;;32.80
65600;BMP280;52272;-29.642;-50.764;2023-01-15T14:01:56;100839.56;;;32.75
65600;BMP280;52272;-29.642;-50.764;2023-01-15T14:04:35;100839.50;;;33.06
65600;BMP280;52272;-29.642;-50.764;2023-01-15T14:07:29;100841.81;;;32.88
65600;BMP280;52272;-29.642;-50.764;2023-01-15T14:13:17;100813.84;;;33.91
65600;BMP280;52272;-29.642;-50.764;2023-01-15T14:15:56;100821.75;;;33.73
65600;BMP280;52272;-29.642;-50.764;2023-01-15T14:35:52;100831.00;;;32.71
65600;BMP280;52272;-29.642;-50.764;2023-01-15T14:38:25;100824.22;;;32.63
65600;BMP280;52272;-29.642;-50.764;2023-01-15T14:41:00;100828.47;;;33.59
65600;BMP280;52272;-29.642;-50.764;2023-01-15T14:43:33;100826.25;;;34.13
65600;BMP280;52272;-29.642;-50.764;2023-01-15T14:48:56;100825.03;;;33.93
65600;BMP280;52272;-29.642;-50.764;2023-01-15T14:51:45;100814.06;;;33.07
65600;BMP280;52272;-29.642;-50.764;2023-01-15T14:54:18;100811.03;;;33.68
65600;BMP280;52272;-29.642;-50.764;2023-01-15T14:56:55;100809.19;;;34.75
65600;BMP280;52272;-29.642;-50.764;2023-01-15T14:59:45;100812.31;;;34.81
65600;BMP280;52272;-29.642;-50.764;2023-01-15T15:02:23;100819.50;;;34.86
65600;BMP280;52272;-29.642;-50.764;2023-01-15T15:05:00;100821.19;;;34.20
65600;BMP280;52272;-29.642;-50.764;2023-01-15T15:07:43;100812.63;;;34.51
65600;BMP280;52272;-29.642;-50.764;2023-01-15T15:10:36;100804.47;;;34.89
65600;BMP280;52272;-29.642;-50.764;2023-01-15T15:13:30;100804.09;;;33.90
65600;BMP280;52272;-29.642;-50.764;2023-01-15T15:16:16;100805.88;;;34.42
65600;BMP280;52272;-29.642;-50.764;2023-01-15T15:19:01;100803.16;;;35.40
65600;BMP280;52272;-29.642;-50.764;2023-01-15T15:21:37;100793.94;;;35.49
65600;BMP280;52272;-29.642;-50.764;2023-01-15T15:24:32;100803.72;;;34.52
65600;BMP280;52272;-29.642;-50.764;2023-01-15T15:27:17;100797.38;;;33.93
65600;BMP280;52272;-29.642;-50.764;2023-01-15T15:29:48;100802.06;;;34.95
65600;BMP280;52272;-29.642;-50.764;2023-01-15T15:32:22;100793.16;;;34.49
65600;BMP280;52272;-29.642;-50.764;2023-01-15T15:34:54;100801.66;;;35.00
65600;BMP280;52272;-29.642;-50.764;2023-01-15T15:37:26;100798.88;;;34.76
65600;BMP280;52272;-29.642;-50.764;2023-01-15T15:40:16;100801.84;;;34.80
65600;BMP280;52272;-29.642;-50.764;2023-01-15T15:43:14;100797.91;;;35.46
65600;BMP280;52272;-29.642;-50.764;2023-01-15T15:46:00;100794.28;;;35.30
65600;BMP280;52272;-29.642;-50.764;2023-01-15T15:49:08;100795.25;;;35.99
65600;BMP280;52272;-29.642;-50.764;2023-01-15T15:57:15;100787.72;;;34.87
65600;BMP280;52272;-29.642;-50.764;2023-01-15T15:59:48;100778.03;;;35.49
65600;BMP280;52272;-29.642;-50.764;2023-01-15T16:02:32;100773.53;;;35.69
65600;BMP280;52272;-29.642;-50.764;2023-01-15T16:07:53;100778.34;;;35.17
65600;BMP280;52272;-29.642;-50.764;2023-01-15T16:10:28;100779.75;;;36.63
65600;BMP280;52272;-29.642;-50.764;2023-01-15T16:13:04;100774.47;;;36.27
65600;BMP280;52272;-29.642;-50.764;2023-01-15T16:15:40;100769.97;;;36.49
65600;BMP280;52272;-29.642;-50.764;2023-01-15T16:18:22;100765.19;;;38.01